Strona główna
METAR-TAF:

METAR-TAF

Lotnisko :

RAAF Base Tindal

Katherine, Australia

Szerokość geograficzna: 14-26S, Długość geograficzna: 132-16E, wysokość: 108 m

Aktualna obserwacja pogody

Raport powstał 32 minut temu, godzina 10:30 UTC
Wiatr 5 kt od południowy wschód
Temperatura 20°C
Wilgotność 37%
Ciśnienie 1015 hPa
Widzialność 10 km lub więcej

METAR: YPTN 181030Z AUTO 13005KT 9999 // NCD 20/05 Q1015

czas: 20:32 (11:02 UTC)

Prognoza

Raport powstał 6 godziny i 21 minut temu, godzina 04:41 UTC
Prognoza ważna od 18 godzina 06 UTC do 19 godzina 06 UTC
Wiatr 10 kt od południowy wschód
Widzialność 10 km lub więcej
Brak chmur poniżej 1500 m i brak chmur cumulonimbus

TAF: YPTN 180441Z 1806/1906 13010KT CAVOK

Obserwacja i prognoza pogody dla ponad 4000 lotnisk (raport METAR i TAF).

Dostępne stacje oznaczono żółtymi i czerwonymi punktami na mapie.

Najedź kursorem aby zobaczyć nazwę stacji.

Kliknij aby zobaczyć obserwacje i prognozy pogody.

Aby zmienić mapę: kliknij na zielony przycisk z czarnym krzyżykiem, aby powiększyć; na zielony przycisk z myślnikiem, aby pomniejszyć; na zielone strzałki, aby przejść do map sąsiednich.


METAR-TAF: